Time;durP1;ratioP1;P1;durP2;ratioP2;P2;SDS_P1;SDS_P2;PMS_P1;PMS_P2;Temp;Humidity;BMP_temperature;BMP_pressure;BME280_temperature;BME280_humidity;BME280_pressure;Samples;Min_cycle;Max_cycle;Signal;HPM_P1;HPM_P2
2023/06/04 00:00:52;;;;;;;7.20;5.50;;;;;;;6.72;59.25;100106.95;436461;1253;139344;-62
2023/06/04 00:10:58;;;;;;;7.60;4.70;;;;;;;6.52;59.83;100099.34;436745;1251;139419;-62
2023/06/04 00:21:04;;;;;;;4.80;2.70;;;;;;;6.42;60.22;100099.75;436665;1252;139132;-63
2023/06/04 00:31:10;;;;;;;4.30;3.40;;;;;;;6.48;60.10;100096.75;436996;1251;139126;-62
2023/06/04 00:41:16;;;;;;;5.70;3.30;;;;;;;6.55;60.05;100096.29;436983;1251;140127;-62
2023/06/04 00:51:22;;;;;;;3.70;2.70;;;;;;;6.49;60.39;100095.81;436911;1253;138841;-62
2023/06/04 01:01:40;;;;;;;5.50;2.20;;;;;;;6.50;60.43;100089.37;437197;1253;140411;-64
2023/06/04 01:11:46;;;;;;;4.70;2.50;;;;;;;6.66;60.21;100087.70;437114;1251;139517;-62
2023/06/04 01:21:54;;;;;;;2.20;2.00;;;;;;;6.75;60.30;100086.65;437134;1250;141017;-62
2023/06/04 01:32:00;;;;;;;13.80;3.00;;;;;;;6.84;60.14;100088.86;437087;1250;140222;-62
2023/06/04 01:42:08;;;;;;;3.00;2.60;;;;;;;6.77;60.79;100091.42;436437;1253;140348;-61
2023/06/04 01:52:16;;;;;;;9.10;2.50;;;;;;;6.59;61.54;100090.91;437007;1253;139567;-61
2023/06/04 02:02:21;;;;;;;29.90;5.60;;;;;;;6.50;61.72;100084.33;436570;1250;139375;-62
2023/06/04 02:12:27;;;;;;;15.00;4.30;;;;;;;6.45;62.09;100079.09;436587;1253;140177;-62
2023/06/04 02:22:33;;;;;;;4.00;2.60;;;;;;;6.43;62.72;100079.69;436703;1251;140191;-62
2023/06/04 02:32:39;;;;;;;5.40;2.50;;;;;;;6.39;62.72;100084.40;436494;1249;140730;-62
2023/06/04 02:42:45;;;;;;;3.90;2.60;;;;;;;6.39;63.06;100085.08;436748;1251;140168;-62
2023/06/04 02:52:50;;;;;;;4.80;1.70;;;;;;;6.51;62.92;100083.23;437043;1251;139191;-63
2023/06/04 03:03:01;;;;;;;4.60;1.80;;;;;;;6.82;62.40;100080.08;436783;1251;142336;-62
2023/06/04 03:13:07;;;;;;;6.20;3.00;;;;;;;7.85;61.95;100080.38;436932;1251;139622;-62
2023/06/04 03:23:13;;;;;;;2.70;2.00;;;;;;;10.77;58.45;100081.48;436590;1253;139205;-62
2023/06/04 03:33:19;;;;;;;3.00;2.00;;;;;;;11.58;55.00;100080.38;436712;1251;141056;-61
2023/06/04 03:43:25;;;;;;;3.50;2.40;;;;;;;11.51;53.37;100082.04;437105;1251;141095;-62
2023/06/04 03:53:31;;;;;;;2.80;1.60;;;;;;;11.12;53.19;100092.39;436745;1253;140035;-61
2023/06/04 04:03:37;;;;;;;3.40;1.90;;;;;;;14.63;52.17;100082.23;436966;1251;140005;-62
2023/06/04 04:13:45;;;;;;;3.50;2.20;;;;;;;20.80;43.79;100079.31;436589;1251;139982;-62
2023/06/04 04:23:52;;;;;;;2.50;2.10;;;;;;;24.40;38.33;100077.58;436369;1253;140522;-62
2023/06/04 04:34:00;;;;;;;4.70;2.00;;;;;;;28.15;33.17;100070.59;436578;1251;139693;-62
2023/06/04 04:44:07;;;;;;;3.60;2.10;;;;;;;30.72;28.91;100066.88;437282;1251;139166;-62
2023/06/04 04:54:12;;;;;;;3.10;1.60;;;;;;;31.91;26.12;100063.98;437365;1251;139173;-61
2023/06/04 05:04:18;;;;;;;2.60;1.70;;;;;;;33.69;23.97;100065.59;436588;1251;139102;-62
2023/06/04 05:14:24;;;;;;;1.80;1.50;;;;;;;36.55;21.63;100060.19;436490;1251;138776;-63
2023/06/04 05:24:32;;;;;;;1.60;1.40;;;;;;;38.49;19.70;100062.84;437047;1251;140181;-63
2023/06/04 05:34:39;;;;;;;1.70;1.30;;;;;;;39.21;18.15;100063.30;437075;1253;139001;-62
2023/06/04 05:44:45;;;;;;;1.80;1.40;;;;;;;40.82;17.18;100069.84;436300;1253;139293;-62
2023/06/04 05:54:51;;;;;;;1.40;1.20;;;;;;;42.83;15.85;100064.50;436641;1251;139100;-62
2023/06/04 06:04:57;;;;;;;2.40;1.40;;;;;;;44.07;14.75;100070.15;437325;1253;140144;-62
2023/06/04 06:15:03;;;;;;;1.20;1.10;;;;;;;44.09;14.05;100076.27;436338;1251;138918;-62
2023/06/04 06:25:12;;;;;;;3.00;1.30;;;;;;;43.59;13.64;100074.36;436410;1251;139676;-63
2023/06/04 06:35:18;;;;;;;1.90;1.20;;;;;;;44.85;13.20;100074.98;436855;1251;138688;-64
2023/06/04 06:45:24;;;;;;;1.60;1.30;;;;;;;45.56;12.61;100076.45;436442;1251;138466;-62
2023/06/04 06:55:30;;;;;;;1.40;0.90;;;;;;;45.74;12.19;100076.98;436199;1253;141144;-62
2023/06/04 07:05:36;;;;;;;1.30;1.30;;;;;;;46.46;11.59;100081.84;436890;1251;138617;-62
2023/06/04 07:15:42;;;;;;;2.50;1.20;;;;;;;45.63;11.42;100089.21;436931;1251;138473;-63
2023/06/04 07:25:48;;;;;;;1.30;1.30;;;;;;;46.86;11.37;100091.19;436249;1251;156109;-62
2023/06/04 07:35:54;;;;;;;3.50;2.10;;;;;;;48.23;10.64;100085.11;436932;1253;139075;-63
2023/06/04 07:46:00;;;;;;;0.70;0.70;;;;;;;48.60;10.31;100090.34;436845;1253;138473;-62
2023/06/04 07:56:06;;;;;;;0.60;0.60;;;;;;;45.63;10.72;100083.39;436635;1251;138697;-62
2023/06/04 08:06:14;;;;;;;5.00;0.90;;;;;;;35.97;13.18;100090.17;436600;1251;138735;-61
2023/06/04 08:16:20;;;;;;;1.40;0.90;;;;;;;31.21;16.00;100091.54;437327;1251;139778;-62
2023/06/04 08:26:26;;;;;;;0.40;0.40;;;;;;;29.22;17.60;100090.05;436417;1253;139829;-62
2023/06/04 08:36:32;;;;;;;;;;;;;;;27.14;18.74;100095.64;436649;1253;140148;-64
2023/06/04 08:46:40;;;;;;;1.10;0.40;;;;;;;26.00;19.84;100091.17;436649;1251;125488;-63
2023/06/04 08:56:47;;;;;;;3.10;0.40;;;;;;;25.35;20.69;100088.66;436443;1253;139177;-63
2023/06/04 09:06:54;;;;;;;0.40;0.40;;;;;;;24.22;21.63;100086.14;436220;1253;140340;-63
2023/06/04 09:17:01;;;;;;;2.80;0.70;;;;;;;23.63;22.54;100084.63;436773;1251;138593;-63
2023/06/04 09:27:13;;;;;;;1.00;0.60;;;;;;;23.50;23.10;100080.55;436486;1253;139286;-64
2023/06/04 09:37:19;;;;;;;1.70;0.80;;;;;;;23.69;23.45;100070.58;436419;1253;140146;-63
2023/06/04 09:47:27;;;;;;;1.60;0.90;;;;;;;23.60;23.56;100069.67;437473;1251;140276;-62
2023/06/04 09:57:35;;;;;;;3.90;1.30;;;;;;;23.00;24.20;100070.82;436454;1253;139551;-63
2023/06/04 10:07:43;;;;;;;2.40;0.50;;;;;;;23.13;24.26;100067.77;437246;1253;138621;-63
2023/06/04 10:17:50;;;;;;;1.00;0.50;;;;;;;23.05;24.07;100059.98;435849;1255;139034;-62
2023/06/04 10:27:56;;;;;;;2.60;0.40;;;;;;;22.64;24.43;100055.23;436253;1253;139286;-64
2023/06/04 10:38:09;;;;;;;1.30;0.80;;;;;;;22.25;25.13;100050.97;436425;1251;140336;-63
2023/06/04 10:48:15;;;;;;;1.10;0.90;;;;;;;21.83;25.33;100051.41;436776;1254;139653;-63
2023/06/04 10:58:21;;;;;;;1.90;0.70;;;;;;;21.01;25.66;100047.09;436395;1251;139152;-63
2023/06/04 11:08:31;;;;;;;1.20;0.70;;;;;;;20.91;26.23;100039.20;436127;1254;139153;-61
2023/06/04 11:18:36;;;;;;;1.90;0.60;;;;;;;20.75;26.27;100041.48;436313;1253;140603;-61
2023/06/04 11:28:42;;;;;;;4.90;0.90;;;;;;;20.65;26.43;100039.89;436434;1253;139726;-64
2023/06/04 11:39:00;;;;;;;0.80;0.70;;;;;;;20.50;26.19;100042.23;436608;1253;138840;-64
2023/06/04 11:49:06;;;;;;;1.30;0.70;;;;;;;20.51;25.56;100041.80;436422;1251;139028;-63
2023/06/04 11:59:14;;;;;;;1.30;0.40;;;;;;;20.56;25.34;100034.99;436312;1251;139476;-63
2023/06/04 12:09:23;;;;;;;5.80;2.00;;;;;;;20.39;25.49;100029.67;436442;1254;138890;-64
2023/06/04 12:19:29;;;;;;;2.50;0.50;;;;;;;20.47;25.80;100024.31;437102;1252;138637;-63
2023/06/04 12:29:36;;;;;;;1.00;0.40;;;;;;;20.65;25.61;100023.33;436312;1253;138615;-62
2023/06/04 12:39:43;;;;;;;1.30;0.30;;;;;;;20.64;24.98;100024.14;436157;1251;138607;-64
2023/06/04 12:49:49;;;;;;;4.30;0.40;;;;;;;20.46;25.21;100025.05;436773;1255;138687;-63
2023/06/04 12:59:54;;;;;;;2.20;0.60;;;;;;;20.42;25.01;100018.48;436649;1253;139084;-63
2023/06/04 13:10:00;;;;;;;1.00;0.40;;;;;;;20.55;24.77;100015.65;436578;1256;138459;-63
2023/06/04 13:20:09;;;;;;;0.60;0.40;;;;;;;20.71;24.97;100009.80;436337;1251;139221;-64
2023/06/04 13:30:16;;;;;;;4.40;0.50;;;;;;;20.85;24.85;100008.73;437106;1253;138652;-62
2023/06/04 13:40:22;;;;;;;6.20;0.80;;;;;;;20.93;24.26;99998.24;437163;1249;138630;-63
2023/06/04 13:50:28;;;;;;;0.70;0.30;;;;;;;20.97;24.46;99992.86;436405;1251;138737;-63
2023/06/04 14:00:34;;;;;;;1.10;0.80;;;;;;;20.90;24.68;99993.71;436733;1254;139160;-63
2023/06/04 14:10:42;;;;;;;0.90;0.60;;;;;;;20.97;25.06;99991.57;438074;1254;139472;-63
2023/06/04 14:20:48;;;;;;;0.50;0.50;;;;;;;20.99;24.79;99986.70;437773;1251;138713;-64
2023/06/04 14:30:54;;;;;;;1.30;0.70;;;;;;;20.95;25.23;99981.45;436538;1253;139946;-63
2023/06/04 14:40:59;;;;;;;0.60;0.60;;;;;;;20.93;24.96;99974.33;436575;1251;138301;-63
2023/06/04 14:51:06;;;;;;;1.00;0.50;;;;;;;20.87;24.98;99965.91;436220;1254;139376;-63
2023/06/04 15:01:12;;;;;;;0.40;0.40;;;;;;;20.92;24.87;99962.23;436130;1254;139115;-64
2023/06/04 15:11:18;;;;;;;1.20;0.70;;;;;;;20.80;24.82;99951.98;436193;1251;138292;-64
2023/06/04 15:21:24;;;;;;;2.80;0.80;;;;;;;20.74;24.88;99951.31;436477;1254;139721;-63
2023/06/04 15:31:30;;;;;;;2.40;1.20;;;;;;;20.72;26.05;99948.83;436274;1251;139502;-62
2023/06/04 15:41:36;;;;;;;3.70;0.60;;;;;;;20.73;26.60;99939.90;436138;1254;140093;-62
2023/06/04 15:51:41;;;;;;;2.10;0.80;;;;;;;20.66;26.77;99935.92;436201;1252;138355;-63
2023/06/04 16:01:47;;;;;;;1.60;0.80;;;;;;;20.60;26.92;99931.77;436250;1251;139060;-63
2023/06/04 16:11:53;;;;;;;1.60;0.80;;;;;;;20.56;26.96;99930.55;436338;1251;139681;-63
2023/06/04 16:21:59;;;;;;;5.20;0.50;;;;;;;20.53;27.10;99929.62;436247;1251;138521;-61
2023/06/04 16:32:06;;;;;;;0.80;0.50;;;;;;;20.46;27.81;99937.46;436229;1251;139190;-62
2023/06/04 16:42:13;;;;;;;1.60;0.60;;;;;;;20.36;28.18;99943.43;436605;1251;142483;-63
2023/06/04 16:52:19;;;;;;;1.50;0.50;;;;;;;20.73;28.19;99937.71;436848;1254;139556;-63
2023/06/04 17:02:25;;;;;;;15.10;1.50;;;;;;;20.25;28.20;99944.42;436966;1251;138648;-63
2023/06/04 17:12:35;;;;;;;1.00;0.70;;;;;;;19.96;28.60;99938.77;436763;1251;139255;-63
2023/06/04 17:22:42;;;;;;;1.20;0.40;;;;;;;19.75;28.81;99937.92;437136;1254;139015;-62
2023/06/04 17:32:48;;;;;;;1.50;0.60;;;;;;;19.50;28.92;99948.55;436807;1251;138741;-62
2023/06/04 17:42:54;;;;;;;0.80;0.60;;;;;;;19.25;29.09;99958.48;437209;1251;139464;-64
2023/06/04 17:53:00;;;;;;;2.10;0.70;;;;;;;18.99;29.15;99962.27;436475;1252;138522;-62
2023/06/04 18:03:07;;;;;;;2.10;0.50;;;;;;;18.73;29.40;99967.73;436557;1254;139376;-64
2023/06/04 18:13:13;;;;;;;0.70;0.50;;;;;;;18.46;29.52;99974.36;437473;1253;139149;-63
2023/06/04 18:23:19;;;;;;;0.70;0.70;;;;;;;18.20;29.71;99979.39;436976;1253;139334;-64
2023/06/04 18:33:25;;;;;;;2.30;0.60;;;;;;;17.92;30.07;99981.31;437057;1251;138608;-63
2023/06/04 18:43:31;;;;;;;2.70;1.00;;;;;;;17.53;30.86;99989.33;436846;1254;139016;-63
2023/06/04 18:53:37;;;;;;;1.50;0.70;;;;;;;17.19;31.55;100002.11;436316;1253;138773;-63
2023/06/04 19:03:43;;;;;;;1.80;0.80;;;;;;;16.89;32.13;100012.76;436239;1254;138418;-63
2023/06/04 19:13:49;;;;;;;2.20;1.00;;;;;;;16.58;32.74;100023.05;436878;1251;139773;-63
2023/06/04 19:23:55;;;;;;;2.00;0.60;;;;;;;16.30;33.24;100035.94;436754;1251;152705;-63
2023/06/04 19:34:01;;;;;;;2.20;1.10;;;;;;;16.12;33.46;100043.70;436484;1251;138752;-64
2023/06/04 19:44:07;;;;;;;2.00;1.50;;;;;;;15.86;33.86;100043.77;436971;1251;138548;-64
2023/06/04 19:54:13;;;;;;;0.70;0.70;;;;;;;15.53;34.32;100043.66;437229;1253;140305;-63
2023/06/04 20:04:19;;;;;;;1.00;0.70;;;;;;;15.28;34.64;100052.98;437293;1251;138721;-65
2023/06/04 20:14:25;;;;;;;3.40;2.00;;;;;;;15.09;35.01;100059.54;437124;1251;139770;-63
2023/06/04 20:24:30;;;;;;;2.70;1.50;;;;;;;14.92;35.32;100062.21;437148;1253;138568;-64
2023/06/04 20:34:36;;;;;;;1.70;0.90;;;;;;;14.76;35.80;100063.89;437724;1251;139240;-64
2023/06/04 20:44:42;;;;;;;4.10;1.20;;;;;;;14.53;36.11;100068.02;437473;1253;140509;-64
2023/06/04 20:54:48;;;;;;;3.00;1.10;;;;;;;14.29;36.43;100070.80;437329;1251;139412;-64
2023/06/04 21:04:54;;;;;;;1.30;1.20;;;;;;;14.12;36.81;100073.24;437395;1251;139721;-63
2023/06/04 21:15:00;;;;;;;1.40;1.10;;;;;;;13.89;37.22;100076.08;436583;1251;139510;-64
2023/06/04 21:25:06;;;;;;;4.30;1.10;;;;;;;13.61;37.84;100081.73;436254;1251;140000;-63
2023/06/04 21:35:13;;;;;;;116.50;98.00;;;;;;;13.31;38.41;100083.66;436437;1254;140053;-61
2023/06/04 21:45:18;;;;;;;9.00;8.10;;;;;;;13.12;38.98;100081.06;436528;1254;141284;-64
2023/06/04 21:55:25;;;;;;;2.20;1.20;;;;;;;13.07;39.45;100089.34;436496;1250;140947;-64
2023/06/04 22:05:30;;;;;;;4.10;1.90;;;;;;;12.94;39.68;100090.52;436609;1254;140043;-63
2023/06/04 22:15:36;;;;;;;2.00;1.30;;;;;;;12.84;40.06;100095.73;436484;1251;140208;-63
2023/06/04 22:25:42;;;;;;;4.00;1.60;;;;;;;12.76;40.45;100098.20;436408;1254;139157;-62
2023/06/04 22:35:48;;;;;;;3.90;1.20;;;;;;;12.72;40.58;100100.39;436378;1251;140827;-63
2023/06/04 22:45:54;;;;;;;3.50;1.80;;;;;;;12.67;40.82;100101.02;436630;1250;139435;-63
2023/06/04 22:56:01;;;;;;;8.10;2.70;;;;;;;12.49;41.38;100104.30;436581;1251;139184;-62
2023/06/04 23:06:07;;;;;;;6.90;2.70;;;;;;;12.30;42.33;100106.52;436874;1254;138742;-63
2023/06/04 23:16:12;;;;;;;2.60;1.50;;;;;;;11.92;43.88;100111.48;436477;1254;140284;-63
2023/06/04 23:26:18;;;;;;;1.30;1.10;;;;;;;11.68;43.80;100114.85;436545;1251;139113;-64
2023/06/04 23:36:24;;;;;;;4.00;1.40;;;;;;;11.68;43.42;100116.96;436133;1251;139843;-64
2023/06/04 23:46:30;;;;;;;2.60;1.10;;;;;;;11.68;43.33;100119.40;436482;1254;138712;-64
2023/06/04 23:56:36;;;;;;;1.90;1.30;;;;;;;11.68;43.34;100119.25;436838;1254;139157;-64
